Time;durP1;ratioP1;P1;durP2;ratioP2;P2;SDS_P1;SDS_P2;PMS_P1;PMS_P2;Temp;Humidity;BMP_temperature;BMP_pressure;BME280_temperature;BME280_humidity;BME280_pressure;Samples;Min_cycle;Max_cycle;Signal;HPM_P1;HPM_P2
2023/07/29 00:01:54;;;;;;;3.13;2.40;;;;;;;25.07;53.13;101109.69;5089119;28;20487;-90
2023/07/29 00:04:20;;;;;;;2.97;2.20;;;;;;;25.01;53.05;101100.81;5090314;28;20119;-90
2023/07/29 00:06:46;;;;;;;;;;;;;;;25.32;53.25;101145.38;5073700;28;20047;-90
2023/07/29 00:09:12;;;;;;;2.30;2.10;;;;;;;25.21;52.95;101127.53;5073644;28;19908;-91
2023/07/29 00:11:37;;;;;;;;;;;;;;;25.31;53.16;101143.56;5104051;28;20428;-90
2023/07/29 00:14:03;;;;;;;2.17;2.03;;;;;;;25.29;53.06;101141.78;5091273;28;19916;-90
2023/07/29 00:16:29;;;;;;;;;;;;;;;25.30;53.24;101138.25;5104398;28;20024;-90
2023/07/29 00:18:57;;;;;;;3.15;2.40;;;;;;;25.14;53.24;101122.16;5086454;28;19911;-90
2023/07/29 00:21:24;;;;;;;2.40;2.20;;;;;;;25.25;53.10;101138.25;5106013;28;20020;-90
2023/07/29 00:23:57;;;;;;;2.78;2.17;;;;;;;25.25;53.17;101127.56;5095177;28;20186;-91
2023/07/29 00:26:25;;;;;;;2.20;2.00;;;;;;;24.94;53.05;101062.50;5096973;27;20081;-89
2023/07/29 00:28:51;;;;;;;3.63;2.08;;;;;;;25.12;53.31;101102.56;5104750;28;20582;-89
2023/07/29 00:31:19;;;;;;;;;;;;;;;25.27;53.08;101128.41;5091339;28;20039;-88
2023/07/29 00:33:44;;;;;;;2.33;2.13;;;;;;;25.02;53.07;101084.78;5096736;28;20342;-89
2023/07/29 00:36:09;;;;;;;;;;;;;;;25.25;53.11;101122.22;5106401;28;20043;-89
2023/07/29 00:38:37;;;;;;;3.30;2.30;;;;;;;24.95;53.16;101077.63;5112599;28;20014;-88
2023/07/29 00:41:04;;;;;;;3.10;2.50;;;;;;;24.90;53.25;101069.63;5077515;28;20448;-88
2023/07/29 00:43:30;;;;;;;2.38;2.17;;;;;;;24.98;53.10;101078.53;5103082;28;20020;-88
2023/07/29 00:45:57;;;;;;;;;;;;;;;25.21;53.13;101115.09;5097846;28;20050;-89
2023/07/29 00:48:23;;;;;;;2.30;2.03;;;;;;;24.98;53.36;101078.53;5078657;28;19942;-89
2023/07/29 00:50:51;;;;;;;2.20;2.00;;;;;;;25.14;53.47;101103.44;5081047;28;20489;-90
2023/07/29 00:53:17;;;;;;;2.35;2.15;;;;;;;25.02;53.18;101081.19;5099907;28;20089;-90
2023/07/29 00:55:43;;;;;;;2.42;2.10;;;;;;;25.07;53.48;101090.09;5096615;28;20042;-91
2023/07/29 00:58:10;;;;;;;;;;;;;;;25.20;53.15;101115.97;5093275;28;20024;-89
2023/07/29 01:00:35;;;;;;;2.72;2.30;;;;;;;24.97;53.28;101078.53;5096813;28;20254;-88
2023/07/29 01:03:01;;;;;;;;;;;;;;;25.19;53.30;101112.38;5100285;28;20045;-88
2023/07/29 01:05:32;;;;;;;2.78;2.13;;;;;;;25.02;53.27;101083.84;5121460;27;19915;-91
2023/07/29 01:08:18;;;;;;;2.42;2.20;;;;;;;25.09;53.41;101096.34;5108831;28;20028;-89
2023/07/29 01:11:18;;;;;;;2.63;2.07;;;;;;;25.14;53.37;101103.44;5105900;28;20035;-89
2023/07/29 01:14:02;;;;;;;2.40;2.20;;;;;;;25.10;53.31;101100.78;5074327;28;20040;-92
2023/07/29 01:16:45;;;;;;;2.67;2.30;;;;;;;24.91;53.33;101063.41;5076649;28;20028;-90
2023/07/29 01:19:27;;;;;;;2.15;1.90;;;;;;;25.02;53.34;101068.75;5100134;28;20032;-90
2023/07/29 01:21:55;;;;;;;3.72;2.25;;;;;;;24.88;53.42;101046.47;5115908;27;20024;-90
2023/07/29 01:24:28;;;;;;;2.40;2.20;;;;;;;25.01;53.29;101069.63;5090384;28;20104;-92
2023/07/29 01:26:54;;;;;;;2.30;2.10;;;;;;;25.09;53.33;101091.00;5084212;28;20034;-93
2023/07/29 01:29:19;;;;;;;;;;;;;;;25.12;53.46;101094.53;5097066;28;20501;-90
2023/07/29 01:31:47;;;;;;;1.90;1.80;;;;;;;24.97;53.00;101059.81;5086527;28;19918;-91
2023/07/29 01:34:17;;;;;;;3.30;2.33;;;;;;;24.76;53.16;101037.59;5095588;28;20031;-91
2023/07/29 01:36:45;;;;;;;2.30;2.10;;;;;;;24.75;53.23;101035.78;5084254;28;20029;-90
2023/07/29 01:39:14;;;;;;;3.17;2.10;;;;;;;24.96;53.03;101076.75;5082551;28;20706;-90
2023/07/29 01:41:41;;;;;;;2.15;1.92;;;;;;;24.72;53.36;101038.47;5088300;28;20440;-89
2023/07/29 01:44:07;;;;;;;2.10;1.90;;;;;;;25.06;53.14;101090.97;5082763;27;20472;-89
2023/07/29 01:46:34;;;;;;;2.40;2.20;;;;;;;25.01;53.17;101093.66;5085519;28;20019;-89
2023/07/29 01:49:04;;;;;;;2.30;1.92;;;;;;;25.01;53.38;101101.69;5095881;28;20476;-89
2023/07/29 01:51:32;;;;;;;2.33;2.03;;;;;;;24.95;53.23;101089.19;5093443;27;20057;-90
2023/07/29 01:54:04;;;;;;;2.42;2.22;;;;;;;24.89;53.30;101077.63;5095239;28;20047;-91
2023/07/29 01:56:31;;;;;;;2.35;2.05;;;;;;;24.88;53.24;101089.22;5081908;27;20488;-90
2023/07/29 01:58:58;;;;;;;3.22;1.95;;;;;;;24.96;53.47;101101.69;5080127;28;20072;-90
2023/07/29 02:01:31;;;;;;;3.28;2.15;;;;;;;24.57;53.50;101027.75;5092243;27;20027;-87
2023/07/29 02:04:00;;;;;;;2.33;2.00;;;;;;;24.54;53.30;101017.09;5115060;28;20631;-91
2023/07/29 02:06:26;;;;;;;5.07;2.08;;;;;;;24.66;53.37;101037.56;5104274;27;20011;-86
2023/07/29 02:08:54;;;;;;;2.13;1.98;;;;;;;24.77;53.43;101062.50;5114207;28;20011;-88
2023/07/29 02:11:27;;;;;;;2.13;1.90;;;;;;;24.90;53.03;101082.97;5094667;28;20034;-91
2023/07/29 02:13:55;;;;;;;2.00;1.90;;;;;;;24.73;53.34;101058.94;5087405;28;20023;-90
2023/07/29 02:16:22;;;;;;;2.17;1.90;;;;;;;24.86;53.02;101085.66;5081039;28;20035;-90
2023/07/29 02:18:51;;;;;;;2.20;2.00;;;;;;;24.90;53.29;101091.00;5106653;27;20026;-91
2023/07/29 02:21:17;;;;;;;2.55;1.98;;;;;;;24.73;53.19;101074.09;5115172;27;20036;-89
2023/07/29 02:23:42;;;;;;;;;;;;;;;24.92;53.11;101105.25;5101978;28;20027;-89
2023/07/29 02:26:08;;;;;;;2.58;2.00;;;;;;;24.80;53.16;101075.84;5116161;28;19955;-89
2023/07/29 02:28:33;;;;;;;;;;;;;;;24.88;53.31;101095.44;5104634;27;20484;-91
2023/07/29 02:31:28;;;;;;;2.17;1.98;;;;;;;24.52;53.39;101030.44;5090882;28;19919;-91
2023/07/29 02:33:55;;;;;;;2.72;1.83;;;;;;;24.68;53.18;101055.38;5088597;27;20118;-90
2023/07/29 02:36:23;;;;;;;2.10;2.00;;;;;;;24.63;53.19;101058.94;5089631;27;20039;-92
2023/07/29 02:38:56;;;;;;;3.88;2.08;;;;;;;24.68;53.22;101067.81;5092603;27;20024;-92
2023/07/29 02:41:22;;;;;;;1.98;1.80;;;;;;;24.73;53.24;101074.09;5108694;28;20044;-91
2023/07/29 02:43:59;;;;;;;;;;;;;;;24.86;53.21;101102.56;5097281;27;20023;-90
2023/07/29 02:46:24;;;;;;;1.75;1.63;;;;;;;24.71;53.41;101075.84;5091698;27;19915;-90
2023/07/29 02:48:51;;;;;;;;;;;;;;;24.85;53.17;101108.81;5100480;27;20031;-90
2023/07/29 02:51:16;;;;;;;2.33;1.92;;;;;;;24.56;53.51;101064.28;5099021;28;19908;-92
2023/07/29 02:54:09;;;;;;;;;;;;;;;24.83;53.25;101117.69;5093007;27;20027;-92
2023/07/29 02:56:38;;;;;;;1.90;1.80;;;;;;;24.67;53.42;101087.44;5100517;28;19911;-93
2023/07/29 02:59:04;;;;;;;2.05;1.85;;;;;;;24.61;53.24;101077.63;5091008;27;20023;-94
2023/07/29 03:01:36;;;;;;;2.25;2.05;;;;;;;24.79;53.30;101106.13;5100272;27;20038;-93
2023/07/29 03:04:02;;;;;;;2.22;2.03;;;;;;;24.67;53.19;101084.75;5095392;28;20081;-92
2023/07/29 03:06:30;;;;;;;;;;;;;;;24.80;53.30;101115.91;5092217;28;20024;-92
2023/07/29 03:09:00;;;;;;;2.30;1.77;;;;;;;24.74;53.63;101105.22;5094373;28;19918;-92
2023/07/29 03:11:39;;;;;;;2.25;2.05;;;;;;;24.80;53.24;101121.25;5108641;27;20034;-92
2023/07/29 03:14:07;;;;;;;2.22;2.03;;;;;;;24.59;53.32;101095.41;5084757;28;20031;-92
2023/07/29 03:16:35;;;;;;;2.13;1.92;;;;;;;24.79;53.49;101116.81;5094718;28;20019;-90
2023/07/29 03:19:00;;;;;;;2.00;1.83;;;;;;;24.75;53.28;101120.38;5104942;28;20572;-89
2023/07/29 03:21:26;;;;;;;;;;;;;;;24.77;53.21;101108.81;5109835;28;20045;-90
2023/07/29 03:23:51;;;;;;;2.10;1.95;;;;;;;24.74;53.16;101116.81;5096567;28;19911;-90
2023/07/29 03:26:17;;;;;;;;;;;;;;;24.75;53.56;101113.25;5115729;27;20031;-88
2023/07/29 03:28:43;;;;;;;2.20;2.00;;;;;;;24.73;53.60;101117.69;5085309;28;19912;-87
2023/07/29 03:31:10;;;;;;;2.20;2.00;;;;;;;24.62;53.52;101094.53;5093567;28;20590;-88
2023/07/29 03:33:36;;;;;;;2.10;1.90;;;;;;;24.49;53.40;101074.91;5081052;28;20032;-90
2023/07/29 03:36:02;;;;;;;;;;;;;;;24.76;53.48;101108.78;5109055;28;20100;-90
2023/07/29 03:38:35;;;;;;;1.92;1.83;;;;;;;24.74;53.33;101108.81;5090462;28;20013;-89
2023/07/29 03:41:02;;;;;;;2.63;1.95;;;;;;;24.69;53.43;101110.56;5087014;27;20047;-88
2023/07/29 03:43:30;;;;;;;1.90;1.80;;;;;;;24.45;53.31;101073.09;5093485;28;20496;-90
2023/07/29 03:45:57;;;;;;;2.05;1.70;;;;;;;24.63;53.75;101097.19;5081085;27;20572;-89
2023/07/29 03:48:22;;;;;;;2.00;1.80;;;;;;;24.60;53.38;101091.00;5090781;27;20401;-89
2023/07/29 03:50:48;;;;;;;;;;;;;;;24.69;53.00;101118.59;5122894;27;20481;-80
2023/07/29 03:53:13;;;;;;;2.08;1.90;;;;;;;24.68;53.48;101121.25;5126491;27;20376;-89
2023/07/29 03:55:39;;;;;;;;;;;;;;;24.71;53.24;101118.59;5116551;27;20026;-89
2023/07/29 03:58:04;;;;;;;1.73;1.63;;;;;;;24.57;53.69;101099.84;5111176;27;19911;-86
2023/07/29 04:00:30;;;;;;;;;;;;;;;24.69;53.62;101113.25;5106928;27;20042;-90
2023/07/29 04:02:56;;;;;;;1.70;1.60;;;;;;;24.48;53.20;101083.81;5100155;27;20384;-89
2023/07/29 04:05:22;;;;;;;1.90;1.80;;;;;;;24.55;53.77;101107.91;5097954;28;20501;-89
2023/07/29 04:07:47;;;;;;;;;;;;;;;24.65;53.71;101119.47;5081871;28;20065;-88
2023/07/29 04:10:13;;;;;;;2.20;1.80;;;;;;;24.43;53.33;101094.47;5097727;28;20027;-89
2023/07/29 04:12:39;;;;;;;;;;;;;;;24.68;53.17;101134.59;5093456;28;20042;-88
2023/07/29 04:15:06;;;;;;;1.70;1.60;;;;;;;24.46;53.40;101101.59;5114446;27;19911;-90
2023/07/29 04:17:32;;;;;;;1.80;1.70;;;;;;;24.57;53.27;101123.91;5098461;27;20031;-93
2023/07/29 04:19:57;;;;;;;;;;;;;;;24.63;53.13;101139.94;5102583;27;20128;-90
2023/07/29 04:22:26;;;;;;;2.28;1.65;;;;;;;24.44;53.75;101111.38;5100606;27;20394;-88
2023/07/29 04:24:51;;;;;;;2.13;1.85;;;;;;;24.40;53.51;101107.81;5098742;27;20042;-89
2023/07/29 04:27:18;;;;;;;;;;;;;;;24.64;53.46;101148.81;5108669;27;20445;-90
2023/07/29 04:29:43;;;;;;;1.88;1.67;;;;;;;24.54;53.23;101142.59;5099391;27;19911;-90
2023/07/29 04:32:09;;;;;;;;;;;;;;;24.59;53.22;101146.16;5105019;27;20412;-89
2023/07/29 04:34:34;;;;;;;2.10;1.90;;;;;;;24.22;53.50;101084.63;5114473;27;20402;-89
2023/07/29 04:37:00;;;;;;;1.73;1.63;;;;;;;24.49;53.42;101133.66;5120620;27;20506;-88
2023/07/29 04:39:25;;;;;;;;;;;;;;;24.59;53.45;101146.16;5097828;28;20138;-89
2023/07/29 04:41:51;;;;;;;1.83;1.70;;;;;;;24.43;53.62;101121.19;5109460;27;19911;-91
2023/07/29 04:44:18;;;;;;;1.83;1.73;;;;;;;24.39;53.26;101124.72;5098118;28;20020;-88
2023/07/29 04:46:44;;;;;;;2.17;1.98;;;;;;;24.38;53.07;101122.94;5084329;27;20427;-88
2023/07/29 04:49:10;;;;;;;;;;;;;;;24.54;53.37;101138.13;5103391;27;20031;-88
2023/07/29 04:51:37;;;;;;;1.70;1.60;;;;;;;24.52;53.71;101147.91;5105838;27;19914;-84
2023/07/29 04:54:04;;;;;;;1.80;1.70;;;;;;;24.42;53.05;101121.16;5089831;27;20122;-88
2023/07/29 04:56:31;;;;;;;1.60;1.50;;;;;;;24.45;53.08;101130.09;5120959;27;20477;-90
2023/07/29 04:58:56;;;;;;;2.60;1.83;;;;;;;24.54;53.03;101142.59;5081907;27;20031;-89
2023/07/29 05:01:22;;;;;;;;;;;;;;;24.55;52.87;101149.69;5097461;28;20106;-88
2023/07/29 05:03:47;;;;;;;1.63;1.52;;;;;;;24.57;53.03;101147.94;5119006;27;20010;-89
2023/07/29 05:06:13;;;;;;;3.38;1.95;;;;;;;24.56;53.05;101152.38;5099576;28;20027;-89
2023/07/29 05:08:38;;;;;;;;;;;;;;;24.56;53.09;101151.50;5115540;27;20039;-89
2023/07/29 05:11:04;;;;;;;1.95;1.50;;;;;;;24.38;53.16;101131.84;5085381;28;19911;-88
2023/07/29 05:13:30;;;;;;;;;;;;;;;24.55;53.07;101163.97;5101281;28;20409;-88
2023/07/29 05:15:56;;;;;;;1.70;1.60;;;;;;;24.22;53.04;101095.31;5087699;27;19908;-87
2023/07/29 05:18:21;;;;;;;;;;;;;;;24.57;53.05;101150.59;5115497;27;20053;-87
2023/07/29 05:20:48;;;;;;;1.70;1.60;;;;;;;24.45;52.71;101124.75;5080983;28;20437;-90
2023/07/29 05:23:13;;;;;;;2.55;1.75;;;;;;;24.44;52.93;101117.59;5096374;28;20514;-89
2023/07/29 05:25:39;;;;;;;;;;;;;;;24.62;53.10;101151.53;5096881;28;20051;-88
2023/07/29 05:28:04;;;;;;;1.40;1.30;;;;;;;24.27;53.21;101100.66;5113623;27;19914;-88
2023/07/29 05:30:31;;;;;;;;;;;;;;;24.64;53.09;101156.84;5097435;27;20031;-87
2023/07/29 05:33:00;;;;;;;1.92;1.80;;;;;;;24.66;53.05;101161.31;5121498;27;19924;-89
2023/07/29 05:35:27;;;;;;;1.60;1.50;;;;;;;24.64;53.04;101162.19;5119934;27;20094;-90
2023/07/29 05:37:53;;;;;;;2.22;1.40;;;;;;;24.38;52.96;101113.16;5098411;27;20038;-88
2023/07/29 05:40:18;;;;;;;;;;;;;;;24.67;53.03;101167.53;5109715;28;20496;-86
2023/07/29 05:42:45;;;;;;;1.80;1.67;;;;;;;24.30;53.00;101106.00;5117937;27;20443;-85
2023/07/29 05:45:11;;;;;;;2.22;2.00;;;;;;;24.64;53.04;101163.09;5118519;27;20486;-84
2023/07/29 05:47:36;;;;;;;;;;;;;;;24.66;53.32;101160.41;5095973;27;20062;-84
2023/07/29 05:50:04;;;;;;;1.77;1.67;;;;;;;24.36;52.95;101112.25;5117285;27;19947;-84
2023/07/29 05:52:30;;;;;;;1.77;1.67;;;;;;;24.49;53.37;101131.91;5099725;27;20500;-86
2023/07/29 05:54:56;;;;;;;2.00;1.65;;;;;;;24.49;53.71;101139.00;5112976;27;20028;-88
2023/07/29 05:57:22;;;;;;;;;;;;;;;24.62;53.98;101159.53;5107698;27;20480;-86
2023/07/29 05:59:47;;;;;;;1.90;1.77;;;;;;;24.49;53.27;101142.59;5104880;27;19919;-87
2023/07/29 06:02:13;;;;;;;;;;;;;;;24.60;53.11;101165.75;5100024;27;20431;-87
2023/07/29 06:04:38;;;;;;;1.98;1.75;;;;;;;24.55;53.64;101155.03;5094664;27;20428;-86
2023/07/29 06:07:04;;;;;;;;;;;;;;;24.64;53.33;101162.19;5107398;27;20583;-87
2023/07/29 06:09:30;;;;;;;2.45;2.00;;;;;;;24.65;53.34;101162.19;5131090;27;19918;-87
2023/07/29 06:11:55;;;;;;;;;;;;;;;24.72;53.73;101165.75;5123998;27;20057;-86
2023/07/29 06:14:21;;;;;;;1.67;1.58;;;;;;;24.60;54.15;101157.75;5108123;27;19954;-85
2023/07/29 06:16:46;;;;;;;;;;;;;;;24.67;53.91;101162.22;5096193;27;20453;-85
2023/07/29 06:19:14;;;;;;;2.03;1.83;;;;;;;24.47;53.81;101127.38;5125236;27;20853;-86
2023/07/29 06:21:41;;;;;;;2.03;1.83;;;;;;;24.65;54.09;101162.19;5104064;27;20102;-89
2023/07/29 06:24:06;;;;;;;2.35;1.90;;;;;;;24.62;54.53;101163.94;5097637;27;20061;-83
2023/07/29 06:26:32;;;;;;;;;;;;;;;24.65;54.35;101161.31;5117127;27;20029;-81
2023/07/29 06:29:03;;;;;;;1.85;1.70;;;;;;;24.28;54.35;101108.69;5100024;27;19915;-81
2023/07/29 06:31:29;;;;;;;1.75;1.65;;;;;;;24.39;54.30;101122.94;5100190;27;20031;-82
2023/07/29 06:33:55;;;;;;;;;;;;;;;24.62;54.29;101162.19;5104645;27;20107;-82
2023/07/29 06:36:23;;;;;;;2.45;2.25;;;;;;;24.64;54.39;101159.50;5117374;27;19958;-82
2023/07/29 06:38:49;;;;;;;2.17;1.90;;;;;;;24.50;54.03;101133.69;5126699;27;20031;-81
2023/07/29 06:41:14;;;;;;;;;;;;;;;24.62;54.53;101169.28;5122665;27;20051;-82
2023/07/29 06:43:40;;;;;;;1.92;1.70;;;;;;;24.52;54.57;101150.59;5112525;27;19920;-81
2023/07/29 06:46:05;;;;;;;1.85;1.75;;;;;;;24.57;54.39;101161.28;5100699;27;20023;-82
2023/07/29 06:48:31;;;;;;;2.85;1.90;;;;;;;24.50;54.51;101128.34;5115777;27;20029;-83
2023/07/29 06:51:00;;;;;;;2.10;1.90;;;;;;;24.64;54.35;101155.09;5084921;27;20096;-82
2023/07/29 06:53:28;;;;;;;2.00;1.90;;;;;;;24.62;53.86;101151.53;5114947;27;20541;-81
2023/07/29 06:55:53;;;;;;;1.98;1.80;;;;;;;24.61;53.48;101147.03;5111409;28;20039;-81
2023/07/29 06:58:19;;;;;;;;;;;;;;;24.61;53.62;101149.72;5094382;28;20027;-82
2023/07/29 07:00:47;;;;;;;2.20;2.00;;;;;;;24.49;53.68;101133.66;5118513;27;20349;-82
2023/07/29 07:03:12;;;;;;;2.90;1.90;;;;;;;24.57;53.60;101150.59;5120415;27;20027;-83
2023/07/29 07:05:38;;;;;;;;;;;;;;;24.58;53.56;101149.72;5129916;27;20022;-82
2023/07/29 07:08:03;;;;;;;2.72;2.00;;;;;;;24.54;53.50;101151.50;5112232;27;19918;-81
2023/07/29 07:10:29;;;;;;;2.17;1.90;;;;;;;24.56;53.75;101152.38;5110907;28;20458;-81
2023/07/29 07:12:54;;;;;;;;;;;;;;;24.59;53.49;101146.16;5112246;28;20043;-81
2023/07/29 07:15:20;;;;;;;2.35;2.15;;;;;;;24.50;53.63;101141.69;5097719;28;19915;-81
2023/07/29 07:17:45;;;;;;;;;;;;;;;24.62;53.43;101148.84;5123776;28;20548;-81
2023/07/29 07:20:11;;;;;;;3.28;2.15;;;;;;;24.43;53.48;101126.50;5111180;28;19907;-81
2023/07/29 07:22:37;;;;;;;;;;;;;;;24.57;53.36;101159.53;5128797;27;20376;-80
2023/07/29 07:25:03;;;;;;;2.30;2.10;;;;;;;24.58;53.43;101155.06;5123534;27;20384;-81
2023/07/29 07:27:28;;;;;;;;;;;;;;;24.57;53.58;101151.50;5116652;27;20139;-82
2023/07/29 07:29:54;;;;;;;3.47;2.25;;;;;;;24.58;53.63;101150.59;5088494;27;19907;-80
2023/07/29 07:32:20;;;;;;;2.30;2.08;;;;;;;24.27;53.83;101098.00;5102459;27;20034;-81
2023/07/29 07:34:45;;;;;;;;;;;;;;;24.57;53.75;101145.25;5097470;28;20027;-82
2023/07/29 07:37:11;;;;;;;2.78;2.30;;;;;;;24.57;53.74;101143.50;5123583;27;19915;-81
2023/07/29 07:39:37;;;;;;;;;;;;;;;24.57;53.69;101146.16;5129995;27;20073;-83
2023/07/29 07:42:07;;;;;;;2.47;2.28;;;;;;;24.38;53.57;101104.25;5121234;27;19911;-82
2023/07/29 07:44:36;;;;;;;2.70;2.22;;;;;;;24.60;53.59;101134.59;5081812;27;20034;-82
2023/07/29 07:47:14;;;;;;;3.67;2.30;;;;;;;24.11;53.66;101057.03;5103315;28;20122;-81
2023/07/29 07:50:06;;;;;;;2.40;2.20;;;;;;;24.59;53.67;101138.13;5092329;27;20060;-82
2023/07/29 07:52:54;;;;;;;2.58;2.05;;;;;;;24.62;53.53;101137.25;5090171;28;20062;-83
2023/07/29 07:55:38;;;;;;;2.65;2.28;;;;;;;24.14;53.91;101047.25;5115808;27;20039;-83
2023/07/29 07:58:04;;;;;;;5.72;2.60;;;;;;;24.49;53.85;101096.28;5095098;28;20501;-81
2023/07/29 08:00:29;;;;;;;;;;;;;;;24.72;53.54;101131.03;5112326;27;20050;-82
2023/07/29 08:02:55;;;;;;;2.50;2.30;;;;;;;24.64;53.82;101111.44;5124139;27;20044;-82
2023/07/29 08:05:22;;;;;;;3.30;2.30;;;;;;;24.37;53.82;101073.09;5128296;27;20412;-82
2023/07/29 08:07:49;;;;;;;3.10;2.70;;;;;;;24.39;54.08;101080.22;5096333;28;20032;-82
2023/07/29 08:10:15;;;;;;;4.03;2.80;;;;;;;24.27;53.60;101053.50;5101348;27;20404;-84
2023/07/29 08:12:40;;;;;;;;;;;;;;;24.71;53.67;101131.94;5113845;27;20024;-82
2023/07/29 08:15:06;;;;;;;2.80;2.40;;;;;;;24.31;54.18;101054.41;5118123;27;19918;-81
2023/07/29 08:17:32;;;;;;;;;;;;;;;24.67;53.78;101117.69;5115368;28;20019;-82
2023/07/29 08:19:57;;;;;;;3.83;2.53;;;;;;;24.35;54.39;101061.53;5109092;27;20296;-81
2023/07/29 08:22:23;;;;;;;;;;;;;;;24.73;53.88;101122.16;5096479;28;20031;-81
2023/07/29 08:24:48;;;;;;;3.03;2.38;;;;;;;24.49;53.83;101074.91;5092152;28;19911;-82
2023/07/29 08:27:14;;;;;;;;;;;;;;;24.76;53.92;101109.72;5095555;28;20175;-82
2023/07/29 08:29:39;;;;;;;3.45;2.67;;;;;;;24.37;53.74;101038.41;5097109;28;20297;-85
2023/07/29 08:32:06;;;;;;;;;;;;;;;24.77;53.81;101110.59;5128785;27;20318;-81
2023/07/29 08:34:31;;;;;;;3.80;2.50;;;;;;;24.75;53.82;101113.25;5115283;28;19920;-83
2023/07/29 08:36:57;;;;;;;;;;;;;;;24.77;53.73;101110.59;5120409;27;20034;-81
2023/07/29 08:39:23;;;;;;;4.32;2.50;;;;;;;24.56;54.09;101076.75;5097161;28;19915;-81
2023/07/29 08:41:48;;;;;;;;;;;;;;;24.77;53.81;101106.13;5133651;27;20051;-81
2023/07/29 08:44:39;;;;;;;4.57;2.85;;;;;;;24.74;53.97;101111.47;5103130;28;19943;-82
2023/07/29 08:47:14;;;;;;;5.45;2.90;;;;;;;24.76;53.84;101112.38;5105158;27;20019;-82
2023/07/29 08:49:41;;;;;;;3.13;2.35;;;;;;;24.60;53.83;101070.50;5081283;28;20489;-82
2023/07/29 08:52:08;;;;;;;4.07;2.72;;;;;;;24.79;54.06;101093.66;5105358;27;20019;-82
2023/07/29 08:54:34;;;;;;;6.18;3.05;;;;;;;24.75;54.02;101083.88;5114229;27;20035;-82
2023/07/29 08:57:00;;;;;;;;;;;;;;;24.82;54.05;101094.56;5114080;28;20020;-82
2023/07/29 08:59:26;;;;;;;4.18;2.90;;;;;;;24.75;53.76;101081.19;5095430;28;19915;-82
2023/07/29 09:01:55;;;;;;;3.22;2.40;;;;;;;24.75;53.92;101075.84;5101570;27;20019;-82
2023/07/29 09:04:21;;;;;;;3.33;2.50;;;;;;;24.60;53.88;101046.47;5123324;27;20023;-82
2023/07/29 09:06:50;;;;;;;;;;;;;;;24.86;54.10;101088.34;5129026;27;20104;-82
2023/07/29 09:09:15;;;;;;;3.55;2.60;;;;;;;24.71;53.97;101055.38;5103732;27;19914;-82
2023/07/29 09:11:41;;;;;;;;;;;;;;;24.85;53.78;101083.84;5132322;27;20106;-82
2023/07/29 09:14:07;;;;;;;3.90;2.70;;;;;;;24.68;54.10;101058.06;5095052;28;19912;-81
2023/07/29 09:16:34;;;;;;;;;;;;;;;24.85;53.81;101086.53;5099647;27;20038;-82
2023/07/29 09:19:03;;;;;;;4.43;2.72;;;;;;;24.82;53.88;101081.19;5094757;28;19911;-81
2023/07/29 09:21:32;;;;;;;4.40;2.90;;;;;;;24.62;54.00;101035.78;5116212;27;20036;-81
2023/07/29 09:24:08;;;;;;;6.30;2.85;;;;;;;24.55;54.20;101030.47;5115794;27;20012;-82
2023/07/29 09:26:41;;;;;;;5.15;2.92;;;;;;;24.89;53.87;101080.31;5118945;27;20448;-81
2023/07/29 09:29:07;;;;;;;3.63;2.55;;;;;;;24.60;54.09;101027.78;5099926;27;20465;-82
2023/07/29 09:31:33;;;;;;;;;;;;;;;24.90;53.88;101088.31;5127149;27;20035;-81
2023/07/29 09:34:00;;;;;;;4.55;2.90;;;;;;;24.82;54.05;101070.53;5135677;27;20401;-82
2023/07/29 09:36:26;;;;;;;5.47;3.40;;;;;;;24.74;53.70;101058.06;5087303;27;20111;-82
2023/07/29 09:38:56;;;;;;;5.90;3.40;;;;;;;24.52;53.91;101021.53;5118591;27;20528;-82
2023/07/29 09:41:30;;;;;;;4.03;2.78;;;;;;;24.92;53.72;101089.22;5099360;27;20047;-82
2023/07/29 09:43:58;;;;;;;5.93;3.50;;;;;;;24.82;53.83;101062.50;5113124;27;20015;-82
2023/07/29 09:46:25;;;;;;;4.53;3.08;;;;;;;24.78;53.51;101050.91;5112061;28;20031;-81
2023/07/29 09:48:53;;;;;;;4.63;3.30;;;;;;;24.89;53.63;101075.88;5126237;27;20027;-83
2023/07/29 09:51:18;;;;;;;6.13;3.20;;;;;;;24.81;53.40;101058.03;5128208;27;20024;-82
2023/07/29 09:53:45;;;;;;;;;;;;;;;25.00;53.53;101078.53;5113119;28;20024;-81
2023/07/29 09:56:11;;;;;;;6.57;3.38;;;;;;;24.63;53.36;101027.78;5136239;27;19958;-83
2023/07/29 09:58:38;;;;;;;;;;;;;;;24.95;53.67;101074.97;5082864;27;20023;-83
2023/07/29 10:01:06;;;;;;;5.55;3.25;;;;;;;24.68;53.49;101031.34;5100616;28;19918;-83
2023/07/29 10:03:36;;;;;;;5.47;3.55;;;;;;;24.96;53.47;101074.09;5112558;27;20449;-81
2023/07/29 10:06:05;;;;;;;5.75;3.17;;;;;;;24.97;53.52;101066.03;5135915;27;20153;-82
2023/07/29 10:08:40;;;;;;;5.68;3.03;;;;;;;24.67;53.35;101015.31;5115546;27;20024;-82
2023/07/29 10:11:09;;;;;;;8.77;3.80;;;;;;;24.97;53.50;101060.69;5112413;27;20047;-81
2023/07/29 10:13:35;;;;;;;7.80;3.80;;;;;;;24.99;53.55;101058.91;5092513;28;20451;-82
2023/07/29 10:16:04;;;;;;;;;;;;;;;25.01;53.70;101055.38;5101668;27;20096;-82
2023/07/29 10:18:31;;;;;;;6.35;3.67;;;;;;;25.01;53.63;101055.38;5093176;28;19907;-82
2023/07/29 10:20:58;;;;;;;6.20;3.42;;;;;;;24.86;53.69;101029.56;5113783;27;20546;-82
2023/07/29 10:23:25;;;;;;;7.40;3.58;;;;;;;25.00;53.71;101059.84;5117778;27;20018;-81
2023/07/29 10:26:04;;;;;;;8.23;3.65;;;;;;;24.95;53.59;101057.13;5121984;27;20050;-81
2023/07/29 10:28:31;;;;;;;6.57;3.65;;;;;;;24.97;53.69;101051.81;5109982;27;20023;-82
2023/07/29 10:30:57;;;;;;;8.07;3.47;;;;;;;25.01;53.54;101058.94;5116060;27;20102;-81
2023/07/29 10:34:01;;;;;;;6.05;3.28;;;;;;;24.88;53.46;101046.47;5110308;27;20134;-81
2023/07/29 10:36:27;;;;;;;5.18;3.20;;;;;;;24.98;53.73;101051.81;5085901;27;20024;-80
2023/07/29 10:38:55;;;;;;;6.80;3.85;;;;;;;25.02;53.59;101058.06;5093891;28;20044;-82
2023/07/29 10:41:21;;;;;;;;;;;;;;;25.11;53.84;101065.16;5110875;27;20571;-82
2023/07/29 10:43:47;;;;;;;7.85;3.60;;;;;;;24.92;53.69;101025.09;5117410;27;20011;-81
2023/07/29 10:46:19;;;;;;;;;;;;;;;25.11;53.73;101055.34;5097085;27;20118;-81
2023/07/29 10:48:50;;;;;;;5.78;3.67;;;;;;;25.11;53.87;101057.16;5125286;27;19918;-81
2023/07/29 10:51:35;;;;;;;6.10;3.63;;;;;;;24.89;53.68;101019.78;5118156;27;20031;-81
2023/07/29 10:54:10;;;;;;;7.15;3.65;;;;;;;25.10;53.95;101047.34;5114809;27;20030;-80
2023/07/29 10:56:46;;;;;;;8.07;3.90;;;;;;;25.12;53.73;101049.09;5120658;27;20030;-81
2023/07/29 10:59:18;;;;;;;6.20;3.90;;;;;;;25.15;53.41;101058.94;5124948;27;20039;-82
2023/07/29 11:01:54;;;;;;;5.90;3.47;;;;;;;25.13;53.74;101052.69;5097606;28;20122;-81
2023/07/29 11:04:20;;;;;;;6.63;3.70;;;;;;;25.14;53.51;101055.34;5120293;27;20027;-81
2023/07/29 11:07:07;;;;;;;;;;;;;;;25.18;53.68;101059.78;5114500;27;20027;-82
2023/07/29 11:09:47;;;;;;;7.80;4.05;;;;;;;25.16;53.62;101056.22;5116364;28;19912;-82
2023/07/29 11:12:38;;;;;;;6.93;3.80;;;;;;;25.18;53.61;101053.56;5115482;27;20034;-82
2023/07/29 11:15:15;;;;;;;6.95;3.95;;;;;;;25.18;53.82;101049.09;5115781;28;20472;-82
2023/07/29 11:18:00;;;;;;;7.25;3.65;;;;;;;25.19;53.25;101058.03;5116632;27;20106;-82
2023/07/29 11:20:32;;;;;;;7.93;3.50;;;;;;;24.92;53.26;101010.84;5088919;28;20415;-81
2023/07/29 11:23:00;;;;;;;7.13;3.25;;;;;;;25.20;53.55;101057.16;5094300;28;20112;-81
2023/07/29 11:25:28;;;;;;;5.68;3.85;;;;;;;25.12;53.37;101035.75;5091060;28;20038;-83
2023/07/29 11:28:10;;;;;;;;;;;;;;;;;;;;;
2023/07/29 11:30:39;;;;;;;6.88;3.83;;;;;;;24.95;53.22;101010.84;5124379;28;20027;-81
2023/07/29 11:33:05;;;;;;;5.63;3.47;;;;;;;25.07;53.42;101028.66;5111971;28;20554;-80
2023/07/29 11:35:31;;;;;;;;;;;;;;;25.25;53.16;101054.47;5118170;27;20027;-82
2023/07/29 11:37:58;;;;;;;6.63;3.38;;;;;;;24.86;53.03;100981.47;5123965;27;19919;-83
2023/07/29 11:40:24;;;;;;;5.57;3.33;;;;;;;25.08;52.90;101025.97;5110121;28;20104;-83
2023/07/29 11:42:50;;;;;;;;;;;;;;;25.28;52.90;101062.50;5107973;28;20437;-83
2023/07/29 11:45:16;;;;;;;6.43;3.60;;;;;;;25.27;52.88;101042.88;5113551;28;20944;-84
2023/07/29 11:47:42;;;;;;;6.22;3.58;;;;;;;25.26;53.14;101038.44;5108884;28;20486;-81
2023/07/29 11:50:13;;;;;;;;;;;;;;;25.32;53.16;101048.25;5107433;28;20034;-82